Time;durP1;ratioP1;P1;durP2;ratioP2;P2;SDS_P1;SDS_P2;PMS_P1;PMS_P2;Temp;Humidity;BMP_temperature;BMP_pressure;BME280_temperature;BME280_humidity;BME280_pressure;Samples;Min_cycle;Max_cycle;Signal;HPM_P1;HPM_P2
2023/01/23 00:02:08;;;;;;;18.17;10.05;;;;;;;5.88;100.00;102326.25;5103868;28;20047;-79
2023/01/23 00:04:35;;;;;;;15.05;8.80;;;;;;;5.68;100.00;102267.19;5103812;28;20100;-80
2023/01/23 00:07:02;;;;;;;15.00;8.15;;;;;;;5.77;100.00;102292.38;5103471;28;20460;-80
2023/01/23 00:09:29;;;;;;;19.90;12.05;;;;;;;5.82;100.00;102313.19;5099935;28;20051;-80
2023/01/23 00:11:56;;;;;;;20.52;11.80;;;;;;;5.74;100.00;102287.16;5101443;28;20044;-80
2023/01/23 00:14:23;;;;;;;16.58;8.57;;;;;;;5.79;100.00;102279.38;5103668;28;20584;-80
2023/01/23 00:16:49;;;;;;;16.70;10.18;;;;;;;5.90;100.00;102298.53;5098762;28;20405;-81
2023/01/23 00:19:16;;;;;;;19.60;12.35;;;;;;;5.66;100.00;102244.63;5100683;28;20048;-80
2023/01/23 00:21:43;;;;;;;18.25;10.95;;;;;;;5.74;100.00;102265.47;5102399;28;20589;-81
2023/01/23 00:24:11;;;;;;;14.82;9.02;;;;;;;5.87;100.00;102270.75;5098591;28;20040;-80
2023/01/23 00:26:38;;;;;;;17.27;8.55;;;;;;;5.88;100.00;102280.31;5107085;28;20446;-81
2023/01/23 00:29:05;;;;;;;13.95;7.95;;;;;;;5.98;100.00;102290.81;5103458;28;20484;-80
2023/01/23 00:31:34;;;;;;;11.88;6.18;;;;;;;5.90;100.00;102281.19;5102905;28;20054;-81
2023/01/23 00:34:05;;;;;;;15.07;9.10;;;;;;;6.10;100.00;102308.22;5102024;28;20048;-81
2023/01/23 00:36:35;;;;;;;14.55;8.15;;;;;;;5.99;100.00;102293.41;5107627;28;20051;-80
2023/01/23 00:39:05;;;;;;;14.02;7.82;;;;;;;6.04;100.00;102283.91;5108833;28;20051;-80
2023/01/23 00:41:32;;;;;;;16.42;9.52;;;;;;;5.47;100.00;102202.94;5097255;28;20052;-80
2023/01/23 00:43:59;;;;;;;13.52;7.68;;;;;;;5.61;100.00;102231.63;5099798;28;20774;-80
2023/01/23 00:46:25;;;;;;;15.15;8.32;;;;;;;5.81;100.00;102241.28;5103597;28;20048;-81
2023/01/23 00:48:52;;;;;;;14.93;9.00;;;;;;;5.57;100.00;102218.59;5103013;28;20408;-81
2023/01/23 00:51:19;;;;;;;17.92;11.15;;;;;;;5.73;100.00;102230.81;5108859;27;20052;-80
2023/01/23 00:53:46;;;;;;;17.75;10.65;;;;;;;5.69;100.00;102229.94;5105966;28;20043;-80
2023/01/23 00:56:13;;;;;;;14.80;8.25;;;;;;;5.55;100.00;102202.13;5112125;28;20051;-80
2023/01/23 00:58:40;;;;;;;16.48;8.38;;;;;;;5.59;100.00;102209.94;5110278;28;20503;-81
2023/01/23 01:01:10;;;;;;;17.63;9.68;;;;;;;5.74;100.00;102223.88;5104983;28;20050;-80
2023/01/23 01:03:37;;;;;;;17.27;9.73;;;;;;;5.82;100.00;102245.59;5110010;28;20051;-80
2023/01/23 01:06:04;;;;;;;13.45;8.27;;;;;;;6.04;100.00;102273.50;5108392;28;20105;-81
2023/01/23 01:08:31;;;;;;;18.00;10.32;;;;;;;5.98;100.00;102265.66;5110475;28;20047;-81
2023/01/23 01:10:58;;;;;;;14.52;8.07;;;;;;;6.04;100.00;102276.13;5111270;28;20043;-80
2023/01/23 01:13:25;;;;;;;17.30;9.75;;;;;;;5.90;100.00;102267.34;5112476;28;20043;-80
2023/01/23 01:15:53;;;;;;;16.88;9.23;;;;;;;5.97;100.00;102266.53;5111557;28;20420;-80
2023/01/23 01:18:21;;;;;;;14.52;8.38;;;;;;;6.08;100.00;102290.00;5109735;28;20047;-80
2023/01/23 01:20:48;;;;;;;17.70;8.52;;;;;;;5.94;100.00;102255.22;5110029;28;20507;-81
2023/01/23 01:23:16;;;;;;;13.65;8.18;;;;;;;6.18;100.00;102297.00;5111421;28;20052;-80
2023/01/23 01:25:42;;;;;;;13.57;7.97;;;;;;;5.94;100.00;102258.69;5106606;28;20052;-80
2023/01/23 01:28:09;;;;;;;14.98;8.45;;;;;;;5.71;100.00;102224.75;5103443;28;20058;-80
2023/01/23 01:30:36;;;;;;;14.27;7.97;;;;;;;5.78;100.00;102246.47;5110406;28;20069;-80
2023/01/23 01:33:03;;;;;;;15.30;8.90;;;;;;;5.89;100.00;102291.56;5110920;28;20044;-79
2023/01/23 01:35:31;;;;;;;16.98;8.65;;;;;;;5.89;100.00;102278.56;5111987;28;20071;-81
2023/01/23 01:37:58;;;;;;;16.90;9.35;;;;;;;5.63;100.00;102234.22;5108124;28;20063;-81
2023/01/23 01:40:33;;;;;;;17.85;9.48;;;;;;;6.03;100.00;102278.69;5110840;28;20048;-81
2023/01/23 01:43:08;;;;;;;21.40;11.98;;;;;;;6.14;100.00;102304.78;5111194;28;20048;-81
2023/01/23 01:46:13;;;;;;;23.30;10.75;;;;;;;6.16;100.00;102303.03;5110766;28;20469;-82
2023/01/23 01:49:01;;;;;;;18.40;10.48;;;;;;;5.96;100.00;102267.38;5107591;28;20123;-82
2023/01/23 01:51:37;;;;;;;18.83;10.23;;;;;;;6.18;100.00;102304.81;5095503;28;20048;-78
2023/01/23 01:54:10;;;;;;;15.60;8.35;;;;;;;6.29;100.00;102315.28;5106238;28;20059;-79
2023/01/23 01:56:44;;;;;;;16.15;8.23;;;;;;;6.16;100.00;102306.53;5109742;28;20052;-79
2023/01/23 01:59:12;;;;;;;19.35;10.70;;;;;;;6.25;100.00;102314.38;5097593;28;20052;-79
2023/01/23 02:01:45;;;;;;;16.40;9.00;;;;;;;6.06;100.00;102284.78;5112229;28;20047;-79
2023/01/23 02:04:12;;;;;;;20.87;10.87;;;;;;;6.27;100.00;102317.00;5112200;28;20079;-79
2023/01/23 02:06:39;;;;;;;20.75;12.13;;;;;;;5.97;100.00;102263.06;5110333;28;20052;-80
2023/01/23 02:09:36;;;;;;;15.65;8.30;;;;;;;6.31;100.00;102299.66;5104980;28;20044;-80
2023/01/23 02:12:04;;;;;;;17.95;9.88;;;;;;;6.03;100.00;102276.09;5098652;28;20055;-80
2023/01/23 02:14:30;;;;;;;22.20;13.02;;;;;;;5.97;100.00;102257.88;5100820;28;20170;-80
2023/01/23 02:16:59;;;;;;;16.58;10.10;;;;;;;5.92;100.00;102247.41;5109978;28;20047;-80
2023/01/23 02:19:47;;;;;;;19.38;11.23;;;;;;;6.07;100.00;102275.25;5112215;28;20101;-81
2023/01/23 02:22:52;;;;;;;16.02;8.85;;;;;;;6.25;100.00;102316.97;5099681;28;20047;-80
2023/01/23 02:25:59;;;;;;;18.60;10.98;;;;;;;6.03;100.00;102263.97;5096891;28;20055;-80
2023/01/23 02:28:40;;;;;;;19.55;9.88;;;;;;;6.27;100.00;102281.44;5105108;28;20051;-81
2023/01/23 02:31:08;;;;;;;18.60;10.20;;;;;;;6.46;100.00;102304.94;5101967;28;20044;-81
2023/01/23 02:33:34;;;;;;;16.00;8.40;;;;;;;6.53;100.00;102311.91;5112598;28;20050;-81
2023/01/23 02:36:04;;;;;;;17.10;9.02;;;;;;;6.54;100.00;102307.59;5114063;28;20112;-81
2023/01/23 02:38:38;;;;;;;16.00;8.77;;;;;;;6.59;100.00;102318.88;5103847;28;20397;-81
2023/01/23 02:41:09;;;;;;;15.65;8.90;;;;;;;6.16;100.00;102243.22;5113951;28;20055;-81
2023/01/23 02:43:37;;;;;;;13.57;7.55;;;;;;;6.45;100.00;102298.00;5097428;28;20040;-80
2023/01/23 02:46:05;;;;;;;16.00;7.65;;;;;;;6.25;100.00;102257.16;5115666;28;20480;-80
2023/01/23 02:48:32;;;;;;;19.95;11.05;;;;;;;6.08;100.00;102254.47;5111597;28;20638;-81
2023/01/23 02:50:59;;;;;;;16.67;9.32;;;;;;;6.31;100.00;102292.72;5115041;28;20496;-81
2023/01/23 02:53:26;;;;;;;14.90;8.63;;;;;;;6.11;100.00;102234.53;5113822;28;20081;-81
2023/01/23 02:55:53;;;;;;;16.00;8.63;;;;;;;6.07;100.00;102225.84;5114145;28;20055;-81
2023/01/23 03:01:05;;;;;;;15.90;8.35;;;;;;;6.51;100.00;102290.22;5109262;28;20054;-80
2023/01/23 03:03:32;;;;;;;14.63;8.45;;;;;;;6.03;100.00;102224.97;5100534;28;20036;-81
2023/01/23 03:06:02;;;;;;;17.33;10.02;;;;;;;6.25;100.00;102261.47;5114883;28;20561;-80
2023/01/23 03:08:34;;;;;;;16.25;8.45;;;;;;;6.35;100.00;102286.66;5103073;28;20386;-81
2023/01/23 03:11:03;;;;;;;18.50;10.50;;;;;;;6.55;100.00;102307.59;5113511;28;20058;-81
2023/01/23 03:13:30;;;;;;;16.20;9.55;;;;;;;6.27;100.00;102257.16;5112721;28;20134;-81
2023/01/23 03:15:57;;;;;;;17.80;9.45;;;;;;;6.22;100.00;102261.47;5113154;28;20047;-80
2023/01/23 03:18:26;;;;;;;21.95;11.93;;;;;;;5.94;100.00;102234.41;5113362;28;20047;-81
2023/01/23 03:20:53;;;;;;;20.17;11.60;;;;;;;5.79;100.00;102206.59;5113545;28;20047;-81
2023/01/23 03:23:20;;;;;;;20.45;11.65;;;;;;;5.95;100.00;102237.03;5100057;28;20052;-81
2023/01/23 03:25:47;;;;;;;24.88;13.27;;;;;;;6.03;100.00;102252.69;5114098;28;20641;-81
2023/01/23 03:30:59;;;;;;;24.50;14.27;;;;;;;6.06;100.00;102253.59;5109897;28;20475;-80
2023/01/23 03:33:26;;;;;;;24.90;15.02;;;;;;;6.04;100.00;102249.25;5113244;28;20047;-80
2023/01/23 03:35:53;;;;;;;21.27;11.88;;;;;;;6.22;100.00;102272.75;5114764;28;20047;-81
2023/01/23 03:38:19;;;;;;;22.60;13.13;;;;;;;6.12;100.00;102262.28;5111294;28;20044;-80
2023/01/23 03:43:34;;;;;;;22.52;13.38;;;;;;;5.99;100.00;102201.56;5105177;28;20040;-81
2023/01/23 03:46:01;;;;;;;24.80;13.13;;;;;;;5.94;100.00;102195.44;5114038;28;20071;-81
2023/01/23 03:48:28;;;;;;;20.77;12.10;;;;;;;6.21;100.00;102238.91;5110141;28;20613;-80
2023/01/23 03:50:54;;;;;;;21.40;11.82;;;;;;;6.45;100.00;102259.84;5114161;28;20052;-80
2023/01/23 03:53:22;;;;;;;23.63;13.40;;;;;;;6.35;100.00;102257.19;5112379;28;20071;-80
2023/01/23 03:55:48;;;;;;;25.45;14.63;;;;;;;6.25;100.00;102248.47;5099869;28;20047;-81
2023/01/23 03:58:15;;;;;;;23.88;13.50;;;;;;;6.36;100.00;102239.00;5102641;28;20064;-82
2023/01/23 04:00:42;;;;;;;19.83;11.80;;;;;;;6.16;100.00;102227.63;5111712;28;20052;-81
2023/01/23 04:03:09;;;;;;;23.27;12.82;;;;;;;6.20;100.00;102240.66;5114268;28;20043;-81
2023/01/23 04:05:35;;;;;;;18.88;10.60;;;;;;;6.13;100.00;102212.88;5112145;28;20044;-80
2023/01/23 04:08:02;;;;;;;23.42;13.38;;;;;;;6.17;100.00;102219.81;5107222;28;20052;-81
2023/01/23 04:10:29;;;;;;;20.63;10.95;;;;;;;6.37;100.00;102237.25;5113004;28;20047;-81
2023/01/23 04:12:56;;;;;;;20.95;10.82;;;;;;;5.93;100.00;102196.28;5107237;28;20050;-80
2023/01/23 04:15:23;;;;;;;21.42;12.32;;;;;;;6.44;100.00;102224.25;5114028;28;21640;-81
2023/01/23 04:17:49;;;;;;;22.55;13.70;;;;;;;6.26;100.00;102227.66;5107043;28;20409;-80
2023/01/23 04:20:16;;;;;;;20.92;11.27;;;;;;;6.36;100.00;102225.97;5112391;28;20051;-80
2023/01/23 04:22:43;;;;;;;18.38;11.00;;;;;;;6.41;100.00;102237.28;5112844;28;20062;-81
2023/01/23 04:25:10;;;;;;;18.33;10.63;;;;;;;6.41;100.00;102252.00;5111960;28;20051;-81
2023/01/23 04:27:37;;;;;;;24.98;12.02;;;;;;;6.37;100.00;102245.06;5102818;28;20048;-81
2023/01/23 04:30:04;;;;;;;20.83;12.38;;;;;;;6.23;100.00;102224.19;5107427;28;20051;-81
2023/01/23 04:32:30;;;;;;;23.33;12.07;;;;;;;6.42;100.00;102252.00;5111975;28;20044;-81
2023/01/23 04:34:57;;;;;;;23.73;12.90;;;;;;;6.20;100.00;102227.66;5097953;28;20044;-81
2023/01/23 04:37:24;;;;;;;22.00;12.93;;;;;;;6.19;100.00;102220.69;5094434;28;20044;-81
2023/01/23 04:39:50;;;;;;;19.58;10.02;;;;;;;6.31;100.00;102226.84;5103583;28;20067;-81
2023/01/23 04:42:17;;;;;;;20.08;12.00;;;;;;;6.62;100.00;102266.81;5112285;28;20113;-82
2023/01/23 04:44:44;;;;;;;24.88;12.60;;;;;;;6.39;100.00;102212.09;5112230;28;20126;-81
2023/01/23 04:47:10;;;;;;;19.88;10.77;;;;;;;6.52;100.00;102206.09;5107799;28;20047;-81
2023/01/23 04:49:37;;;;;;;24.08;14.13;;;;;;;6.07;100.00;102195.53;5097781;28;20058;-81
2023/01/23 04:52:04;;;;;;;16.40;9.88;;;;;;;6.32;100.00;102208.63;5112182;28;20047;-81
2023/01/23 04:54:31;;;;;;;20.55;11.57;;;;;;;6.36;100.00;102235.53;5106481;28;20055;-80
2023/01/23 04:56:58;;;;;;;20.10;12.68;;;;;;;6.35;100.00;102215.56;5105328;28;20382;-81
2023/01/23 04:59:25;;;;;;;22.80;13.18;;;;;;;6.27;100.00;102216.41;5106934;28;20051;-81
2023/01/23 05:01:51;;;;;;;19.92;11.10;;;;;;;6.71;100.00;102297.22;5100637;28;20078;-81
2023/01/23 05:04:18;;;;;;;17.67;10.02;;;;;;;6.74;100.00;102289.44;5112466;28;20051;-80
2023/01/23 05:06:45;;;;;;;18.92;10.52;;;;;;;6.22;100.00;102225.06;5111396;28;20050;-80
2023/01/23 05:09:12;;;;;;;18.00;9.85;;;;;;;6.54;100.00;102272.00;5113519;28;20050;-81
2023/01/23 05:11:39;;;;;;;19.23;11.43;;;;;;;6.39;100.00;102249.41;5108104;28;20051;-80
2023/01/23 05:14:05;;;;;;;20.08;12.43;;;;;;;6.41;100.00;102247.69;5103189;28;20047;-81
2023/01/23 05:16:32;;;;;;;20.42;11.45;;;;;;;6.59;100.00;102272.91;5109971;28;20493;-81
2023/01/23 05:18:59;;;;;;;21.42;12.48;;;;;;;6.53;100.00;102272.88;5100946;28;20047;-80
2023/01/23 05:21:25;;;;;;;21.23;12.55;;;;;;;6.62;100.00;102279.84;5111273;28;20054;-81
2023/01/23 05:23:52;;;;;;;20.02;12.45;;;;;;;6.79;100.00;102326.78;5112969;28;20054;-81
2023/01/23 05:26:19;;;;;;;21.52;12.20;;;;;;;6.51;100.00;102282.41;5098591;28;20051;-81
2023/01/23 05:28:46;;;;;;;26.33;16.60;;;;;;;6.47;100.00;102304.06;5096591;28;20048;-81
2023/01/23 05:31:13;;;;;;;24.15;14.10;;;;;;;6.63;100.00;102294.59;5102013;28;20048;-81
2023/01/23 05:33:40;;;;;;;23.08;13.25;;;;;;;6.60;100.00;102312.81;5108096;28;20465;-81
2023/01/23 05:36:07;;;;;;;25.25;13.02;;;;;;;6.25;100.00;102243.25;5098526;28;20043;-81
2023/01/23 05:38:33;;;;;;;21.98;11.65;;;;;;;6.62;100.00;102283.34;5105613;28;20469;-81
2023/01/23 05:41:01;;;;;;;22.52;12.40;;;;;;;6.79;100.00;102306.81;5112080;28;20051;-81
2023/01/23 05:43:27;;;;;;;19.48;12.05;;;;;;;6.37;100.00;102216.44;5112083;28;20047;-81
2023/01/23 05:45:54;;;;;;;19.58;10.45;;;;;;;6.74;100.00;102281.63;5096934;28;20146;-82
2023/01/23 05:48:21;;;;;;;20.58;11.73;;;;;;;6.73;100.00;102269.47;5108109;28;20043;-81
2023/01/23 05:50:47;;;;;;;22.40;12.25;;;;;;;6.38;100.00;102229.44;5111016;28;20051;-80
2023/01/23 05:53:14;;;;;;;25.83;15.82;;;;;;;6.53;100.00;102282.41;5111039;28;20065;-82
2023/01/23 05:55:41;;;;;;;24.73;13.65;;;;;;;6.69;100.00;102283.34;5112173;28;20051;-82
2023/01/23 05:58:08;;;;;;;21.13;12.52;;;;;;;6.59;100.00;102241.66;5110483;28;20066;-81
2023/01/23 06:00:35;;;;;;;26.02;14.73;;;;;;;6.27;100.00;102202.53;5110818;28;20062;-80
2023/01/23 06:03:02;;;;;;;22.70;12.25;;;;;;;6.33;100.00;102184.34;5108955;28;20119;-81
2023/01/23 06:05:29;;;;;;;25.42;12.93;;;;;;;6.13;100.00;102163.47;5100716;28;20050;-81
2023/01/23 06:07:55;;;;;;;23.58;13.60;;;;;;;6.40;100.00;102209.50;5101076;28;20056;-81
2023/01/23 06:10:22;;;;;;;26.20;15.15;;;;;;;6.53;100.00;102239.03;5115054;28;20048;-81
2023/01/23 06:12:49;;;;;;;28.20;16.60;;;;;;;6.20;100.00;102209.44;5116638;28;20039;-81
2023/01/23 06:15:16;;;;;;;22.65;13.55;;;;;;;6.68;100.00;102274.66;5101924;28;20400;-81
2023/01/23 06:17:43;;;;;;;20.33;12.05;;;;;;;6.67;100.00;102278.13;5104882;28;20055;-81
2023/01/23 06:20:11;;;;;;;22.42;13.07;;;;;;;6.29;100.00;102233.78;5110234;28;20048;-82
2023/01/23 06:22:38;;;;;;;25.17;14.52;;;;;;;6.32;100.00;102234.66;5105226;28;20044;-81
2023/01/23 06:25:05;;;;;;;22.48;12.48;;;;;;;6.49;100.00;102224.28;5116134;28;20059;-81
2023/01/23 06:27:32;;;;;;;24.35;15.13;;;;;;;6.34;100.00;102232.03;5105159;28;20123;-82
2023/01/23 06:29:58;;;;;;;24.75;13.82;;;;;;;6.30;100.00;102230.28;5115041;28;20058;-81
2023/01/23 06:32:25;;;;;;;22.40;13.27;;;;;;;6.42;100.00;102269.34;5115312;28;20056;-81
2023/01/23 06:34:52;;;;;;;20.25;11.95;;;;;;;6.56;100.00;102274.63;5105568;28;20052;-80
2023/01/23 06:37:18;;;;;;;21.85;13.00;;;;;;;6.53;100.00;102265.06;5111703;28;20100;-80
2023/01/23 06:39:45;;;;;;;21.23;12.10;;;;;;;6.33;100.00;102232.91;5098354;28;20055;-81
2023/01/23 06:42:12;;;;;;;23.88;12.50;;;;;;;6.26;100.00;102209.47;5111972;28;20507;-81
2023/01/23 06:44:39;;;;;;;20.23;11.40;;;;;;;6.72;100.00;102267.75;5104084;28;20047;-81
2023/01/23 06:47:05;;;;;;;19.10;10.77;;;;;;;6.46;100.00;102243.38;5106898;28;20050;-80
2023/01/23 06:49:32;;;;;;;20.00;11.13;;;;;;;6.54;100.00;102281.56;5111274;28;20056;-81
2023/01/23 06:51:59;;;;;;;21.55;12.40;;;;;;;6.47;100.00;102281.53;5101017;28;20564;-82
2023/01/23 06:54:26;;;;;;;22.88;13.73;;;;;;;6.23;100.00;102252.78;5110671;28;20051;-83
2023/01/23 06:56:52;;;;;;;21.25;11.95;;;;;;;6.58;100.00;102280.69;5098986;28;20040;-82
2023/01/23 06:59:19;;;;;;;22.05;13.65;;;;;;;6.35;100.00;102259.78;5095347;28;20055;-82
2023/01/23 07:01:46;;;;;;;20.27;11.75;;;;;;;6.31;100.00;102232.03;5110456;28;20473;-83
2023/01/23 07:04:12;;;;;;;17.52;10.27;;;;;;;6.44;100.00;102265.88;5107566;28;20048;-82
2023/01/23 07:06:39;;;;;;;18.48;10.85;;;;;;;6.65;100.00;102306.75;5109949;28;20043;-81
2023/01/23 07:09:06;;;;;;;17.50;10.45;;;;;;;6.33;100.00;102251.97;5105796;28;20052;-82
2023/01/23 07:11:34;;;;;;;23.42;13.18;;;;;;;6.30;100.00;102238.09;5103665;28;20039;-82
2023/01/23 07:14:01;;;;;;;23.77;12.63;;;;;;;6.58;100.00;102314.53;5111927;28;20043;-83
2023/01/23 07:16:28;;;;;;;21.70;12.20;;;;;;;6.36;100.00;102265.00;5109910;28;20044;-83
2023/01/23 07:18:57;;;;;;;16.40;9.63;;;;;;;6.63;100.00;102290.25;5112415;28;20489;-83
2023/01/23 07:21:24;;;;;;;20.02;11.60;;;;;;;6.35;100.00;102255.44;5111823;28;20522;-84
2023/01/23 07:23:51;;;;;;;20.40;11.63;;;;;;;6.29;100.00;102249.38;5108750;28;20052;-84
2023/01/23 07:26:18;;;;;;;18.98;10.77;;;;;;;6.44;100.00;102271.09;5104893;28;20440;-84
2023/01/23 07:28:45;;;;;;;24.55;14.02;;;;;;;6.21;100.00;102250.19;5106444;28;20048;-84
2023/01/23 07:31:11;;;;;;;20.95;11.25;;;;;;;6.45;100.00;102295.41;5107267;28;20047;-84
2023/01/23 07:33:38;;;;;;;16.00;9.02;;;;;;;6.52;100.00;102294.56;5106608;28;20126;-84
2023/01/23 07:36:06;;;;;;;18.38;10.90;;;;;;;6.45;100.00;102265.03;5108170;28;20121;-84
2023/01/23 07:38:33;;;;;;;19.80;11.85;;;;;;;6.74;100.00;102326.75;5103028;28;20059;-83
2023/01/23 07:41:00;;;;;;;16.52;9.57;;;;;;;6.58;100.00;102299.78;5110414;28;20051;-84
2023/01/23 07:43:26;;;;;;;15.63;8.85;;;;;;;6.57;100.00;102299.78;5113560;28;20059;-84
2023/01/23 07:45:53;;;;;;;14.30;8.35;;;;;;;6.56;100.00;102321.47;5098209;28;20048;-83
2023/01/23 07:48:20;;;;;;;19.30;10.15;;;;;;;6.44;100.00;102294.50;5107041;28;20047;-85
2023/01/23 07:50:47;;;;;;;18.00;9.50;;;;;;;6.63;100.00;102339.72;5114690;28;20056;-84
2023/01/23 07:53:13;;;;;;;16.30;8.98;;;;;;;6.51;100.00;102313.63;5114838;28;20047;-84
2023/01/23 07:55:40;;;;;;;18.08;10.38;;;;;;;6.07;100.00;102283.06;5113028;28;20067;-84
2023/01/23 07:58:07;;;;;;;16.83;9.25;;;;;;;6.31;100.00;102331.75;5106322;28;20056;-84
2023/01/23 08:00:34;;;;;;;14.75;8.05;;;;;;;6.21;100.00;102323.00;5102790;28;20393;-84
2023/01/23 08:03:00;;;;;;;17.35;9.77;;;;;;;6.25;100.00;102316.09;5111865;28;20044;-84
2023/01/23 08:05:27;;;;;;;20.48;11.18;;;;;;;6.37;100.00;102354.31;5112979;28;20048;-84
2023/01/23 08:07:54;;;;;;;18.33;9.52;;;;;;;6.46;100.00;102339.66;5110554;28;20056;-84
2023/01/23 08:10:37;;;;;;;17.05;10.05;;;;;;;6.35;100.00;102319.63;5099979;28;20052;-85
2023/01/23 08:13:04;;;;;;;18.67;10.90;;;;;;;6.31;100.00;102325.69;5113705;28;20051;-84
2023/01/23 08:15:31;;;;;;;16.08;9.00;;;;;;;6.24;100.00;102315.22;5112590;28;20055;-84
2023/01/23 08:17:58;;;;;;;15.95;9.15;;;;;;;6.38;100.00;102330.91;5105596;28;20361;-83
2023/01/23 08:20:24;;;;;;;19.45;11.18;;;;;;;6.00;100.00;102291.69;5099361;28;20393;-84
2023/01/23 08:22:51;;;;;;;19.40;11.32;;;;;;;6.19;100.00;102303.06;5112405;28;20058;-84
2023/01/23 08:25:18;;;;;;;16.60;9.27;;;;;;;6.30;100.00;102319.59;5110943;28;20044;-84
2023/01/23 08:27:45;;;;;;;20.05;10.43;;;;;;;6.18;100.00;102290.91;5099653;28;20044;-84
2023/01/23 08:30:12;;;;;;;18.92;10.30;;;;;;;6.57;100.00;102346.63;5108024;28;20052;-84
2023/01/23 08:32:38;;;;;;;17.90;9.98;;;;;;;6.43;100.00;102310.16;5114116;28;20075;-84
2023/01/23 08:35:06;;;;;;;18.95;11.57;;;;;;;6.11;100.00;102284.81;5103229;28;20054;-83
2023/01/23 08:37:33;;;;;;;18.17;10.15;;;;;;;6.47;100.00;102330.09;5108485;28;20383;-83
2023/01/23 08:40:00;;;;;;;17.80;10.43;;;;;;;6.15;100.00;102275.31;5113374;28;20051;-83
2023/01/23 08:42:26;;;;;;;20.13;9.57;;;;;;;6.23;100.00;102286.59;5112308;28;20051;-84
2023/01/23 08:44:53;;;;;;;18.75;10.45;;;;;;;6.28;100.00;102295.31;5112335;28;20063;-84
2023/01/23 08:47:20;;;;;;;17.17;10.20;;;;;;;6.38;100.00;102330.91;5108231;28;20050;-84
2023/01/23 08:49:47;;;;;;;16.38;9.93;;;;;;;6.40;100.00;102310.13;5098042;28;20052;-83
2023/01/23 08:52:14;;;;;;;20.77;11.90;;;;;;;6.15;100.00;102298.72;5113870;28;20070;-84
2023/01/23 08:54:40;;;;;;;17.25;9.68;;;;;;;6.40;100.00;102307.53;5112551;28;20044;-84
2023/01/23 08:57:07;;;;;;;17.35;9.80;;;;;;;6.62;100.00;102347.50;5108580;28;20602;-84
2023/01/23 08:59:34;;;;;;;16.20;9.73;;;;;;;6.49;100.00;102343.13;5108207;28;20054;-84
2023/01/23 09:02:01;;;;;;;19.30;11.27;;;;;;;6.32;100.00;102311.81;5101505;28;20048;-83
2023/01/23 09:04:28;;;;;;;19.10;10.88;;;;;;;6.71;100.00;102358.00;5111891;28;20043;-84
2023/01/23 09:06:54;;;;;;;19.55;10.60;;;;;;;6.27;100.00;102291.84;5108835;28;20059;-84
2023/01/23 09:09:23;;;;;;;18.50;10.60;;;;;;;6.78;100.00;102370.16;5100015;28;20051;-84
2023/01/23 09:11:49;;;;;;;17.25;10.43;;;;;;;6.30;100.00;102288.38;5109267;28;20523;-84
2023/01/23 09:14:16;;;;;;;19.73;11.10;;;;;;;6.57;100.00;102318.88;5100041;28;20051;-84
2023/01/23 09:16:43;;;;;;;16.80;9.52;;;;;;;6.66;100.00;102307.63;5111700;28;20040;-84
2023/01/23 09:19:11;;;;;;;14.65;8.20;;;;;;;6.66;100.00;102292.03;5111514;28;20434;-84
2023/01/23 09:21:38;;;;;;;19.23;10.35;;;;;;;6.52;100.00;102276.34;5113022;28;20164;-84
2023/01/23 09:24:05;;;;;;;20.50;11.63;;;;;;;6.45;100.00;102295.41;5113419;28;20047;-84
2023/01/23 09:26:32;;;;;;;18.70;9.70;;;;;;;6.71;100.00;102324.16;5111787;28;20043;-84
2023/01/23 09:28:59;;;;;;;16.90;10.10;;;;;;;6.80;100.00;102318.97;5105681;28;20052;-85
2023/01/23 09:31:25;;;;;;;20.05;10.55;;;;;;;6.54;100.00;102287.63;5092054;28;20413;-84
2023/01/23 09:33:52;;;;;;;16.10;8.80;;;;;;;6.95;100.00;102322.47;5111770;28;20043;-84
2023/01/23 09:36:19;;;;;;;20.45;11.27;;;;;;;6.70;100.00;102290.28;5115312;28;20053;-84
2023/01/23 09:39:06;;;;;;;19.85;11.10;;;;;;;6.69;100.00;102288.53;5113237;28;20044;-83
2023/01/23 09:41:33;;;;;;;17.80;10.40;;;;;;;6.95;100.00;102328.53;5111845;28;20051;-84
2023/01/23 09:44:10;;;;;;;19.50;11.52;;;;;;;6.95;100.00;102318.13;5116860;28;20063;-84
2023/01/23 09:46:40;;;;;;;19.73;11.70;;;;;;;6.87;100.00;102326.78;5115928;28;20059;-82
2023/01/23 09:49:18;;;;;;;16.08;9.35;;;;;;;6.99;100.00;102309.47;5116688;28;20047;-83
2023/01/23 09:51:59;;;;;;;17.95;10.50;;;;;;;7.25;100.00;102342.50;5115031;28;20044;-84
2023/01/23 09:55:02;;;;;;;17.02;10.15;;;;;;;7.28;100.00;102373.78;5114965;28;20047;-84
2023/01/23 09:57:40;;;;;;;15.23;9.00;;;;;;;6.89;100.00;102299.00;5091003;28;20051;-84
2023/01/23 10:00:29;;;;;;;18.45;10.75;;;;;;;7.26;100.00;102367.72;5115360;28;20310;-83
2023/01/23 10:02:58;;;;;;;20.90;10.75;;;;;;;7.17;100.00;102355.53;5116035;28;20501;-83
2023/01/23 10:05:42;;;;;;;16.90;9.90;;;;;;;7.07;100.00;102334.69;5107400;28;20043;-83
2023/01/23 10:08:16;;;;;;;15.05;8.82;;;;;;;7.09;100.00;102320.78;5102335;28;20400;-85
2023/01/23 10:10:49;;;;;;;16.60;9.82;;;;;;;7.27;100.00;102371.19;5116004;28;20043;-84
2023/01/23 10:13:15;;;;;;;15.67;8.77;;;;;;;7.37;100.00;102372.94;5115688;28;20051;-84
2023/01/23 10:16:11;;;;;;;15.60;8.93;;;;;;;7.40;100.00;102371.22;5115152;28;20052;-84
2023/01/23 10:18:53;;;;;;;16.35;9.05;;;;;;;7.50;100.00;102363.41;5113022;28;20440;-84
2023/01/23 10:21:25;;;;;;;18.20;9.57;;;;;;;7.43;100.00;102377.28;5115672;28;20067;-83
2023/01/23 10:24:29;;;;;;;14.43;9.25;;;;;;;7.51;100.00;102365.16;5116562;28;20046;-84
2023/01/23 10:27:14;;;;;;;14.70;9.15;;;;;;;7.51;100.00;102376.44;5114448;28;20051;-84
2023/01/23 10:29:47;;;;;;;15.23;8.10;;;;;;;7.36;100.00;102332.09;5105714;28;20059;-85
2023/01/23 10:32:24;;;;;;;13.88;7.72;;;;;;;7.26;100.00;102335.56;5115026;28;20051;-84
2023/01/23 10:35:00;;;;;;;15.40;8.90;;;;;;;7.35;100.00;102336.47;5116084;28;20096;-83
2023/01/23 10:37:41;;;;;;;15.23;8.88;;;;;;;7.25;100.00;102311.25;5103784;28;20047;-83
2023/01/23 10:40:13;;;;;;;15.38;9.05;;;;;;;7.58;100.00;102361.69;5116246;28;20058;-83
2023/01/23 10:42:40;;;;;;;13.75;8.18;;;;;;;7.37;100.00;102307.81;5107548;28;20047;-82
2023/01/23 10:45:16;;;;;;;15.45;8.98;;;;;;;7.24;100.00;102275.63;5108022;28;20052;-83
2023/01/23 10:47:46;;;;;;;17.00;8.70;;;;;;;7.69;100.00;102352.13;5103977;28;20130;-83
2023/01/23 10:50:35;;;;;;;15.75;8.18;;;;;;;7.35;100.00;102284.34;5114719;28;20108;-83
2023/01/23 10:53:07;;;;;;;14.60;8.18;;;;;;;7.58;100.00;102319.97;5113824;28;20055;-83
2023/01/23 10:55:34;;;;;;;12.38;7.25;;;;;;;7.70;100.00;102338.22;5115490;28;20051;-83
2023/01/23 10:58:02;;;;;;;14.38;8.43;;;;;;;7.36;100.00;102287.81;5108417;28;20393;-84
2023/01/23 11:00:43;;;;;;;12.48;6.82;;;;;;;7.61;100.00;102312.13;5105645;28;20039;-83
2023/01/23 11:03:28;;;;;;;12.00;6.82;;;;;;;7.83;100.00;102339.09;5121997;28;20044;-83
2023/01/23 11:06:08;;;;;;;12.88;7.20;;;;;;;7.61;100.00;102283.47;5114602;28;20058;-83
2023/01/23 11:08:48;;;;;;;11.45;6.35;;;;;;;8.11;100.00;102342.53;5095994;28;20406;-82
2023/01/23 11:11:15;;;;;;;13.75;7.82;;;;;;;8.04;100.00;102332.09;5111300;28;20552;-83
2023/01/23 11:13:44;;;;;;;13.43;7.15;;;;;;;7.77;100.00;102300.84;5115500;28;20047;-83
2023/01/23 11:16:18;;;;;;;13.13;7.00;;;;;;;7.92;100.00;102291.28;5113949;28;20066;-83
2023/01/23 11:19:01;;;;;;;14.98;8.25;;;;;;;7.66;100.00;102260.00;5105820;28;20074;-83
2023/01/23 11:21:29;;;;;;;;;;;;;;;8.05;100.00;102328.63;5115924;28;20500;-83
2023/01/23 11:24:23;;;;;;;12.55;6.43;;;;;;;8.10;100.00;102329.50;5107090;28;19924;-83
2023/01/23 11:27:14;;;;;;;10.90;6.10;;;;;;;8.14;100.00;102334.72;5100311;28;20142;-82
2023/01/23 11:29:47;;;;;;;11.63;5.90;;;;;;;8.14;100.00;102326.00;5113930;28;20044;-83
2023/01/23 11:32:16;;;;;;;12.82;6.40;;;;;;;7.85;100.00;102286.94;5113455;28;20074;-83